sensor_id;sensor_type;location;lat;lon;timestamp;temperature;humidity
51305;HTU21D;37392;50.964;6.952;2022-09-13T00:00:35;17.02;90.07
51305;HTU21D;37392;50.964;6.952;2022-09-13T00:03:01;16.98;90.04
51305;HTU21D;37392;50.964;6.952;2022-09-13T00:05:26;16.99;90.46
51305;HTU21D;37392;50.964;6.952;2022-09-13T00:07:52;16.98;90.44
51305;HTU21D;37392;50.964;6.952;2022-09-13T00:10:18;16.93;90.37
51305;HTU21D;37392;50.964;6.952;2022-09-13T00:12:43;16.84;90.49
51305;HTU21D;37392;50.964;6.952;2022-09-13T00:15:09;16.79;90.98
51305;HTU21D;37392;50.964;6.952;2022-09-13T00:17:36;16.73;91.34
51305;HTU21D;37392;50.964;6.952;2022-09-13T00:20:02;16.69;91.69
51305;HTU21D;37392;50.964;6.952;2022-09-13T00:22:28;16.70;91.89
51305;HTU21D;37392;50.964;6.952;2022-09-13T00:24:53;16.70;91.75
51305;HTU21D;37392;50.964;6.952;2022-09-13T00:27:19;16.63;91.86
51305;HTU21D;37392;50.964;6.952;2022-09-13T00:29:44;16.65;91.88
51305;HTU21D;37392;50.964;6.952;2022-09-13T00:32:10;16.67;91.73
51305;HTU21D;37392;50.964;6.952;2022-09-13T00:34:36;16.65;91.60
51305;HTU21D;37392;50.964;6.952;2022-09-13T00:37:01;16.69;91.77
51305;HTU21D;37392;50.964;6.952;2022-09-13T00:39:27;16.69;91.76
51305;HTU21D;37392;50.964;6.952;2022-09-13T00:41:52;16.65;91.84
51305;HTU21D;37392;50.964;6.952;2022-09-13T00:47:26;16.57;92.19
51305;HTU21D;37392;50.964;6.952;2022-09-13T00:52:42;16.63;92.09
51305;HTU21D;37392;50.964;6.952;2022-09-13T00:55:15;16.69;91.98
51305;HTU21D;37392;50.964;6.952;2022-09-13T00:57:53;16.73;91.76
51305;HTU21D;37392;50.964;6.952;2022-09-13T01:00:23;16.77;91.79
51305;HTU21D;37392;50.964;6.952;2022-09-13T01:02:50;16.77;91.72
51305;HTU21D;37392;50.964;6.952;2022-09-13T01:05:19;16.73;91.69
51305;HTU21D;37392;50.964;6.952;2022-09-13T01:07:46;16.62;91.85
51305;HTU21D;37392;50.964;6.952;2022-09-13T01:10:12;16.54;92.30
51305;HTU21D;37392;50.964;6.952;2022-09-13T01:15:35;16.34;92.95
51305;HTU21D;37392;50.964;6.952;2022-09-13T01:18:01;16.31;93.14
51305;HTU21D;37392;50.964;6.952;2022-09-13T01:20:30;16.29;93.54
51305;HTU21D;37392;50.964;6.952;2022-09-13T01:31:43;16.28;94.91
51305;HTU21D;37392;50.964;6.952;2022-09-13T01:42:14;16.43;95.13
51305;HTU21D;37392;50.964;6.952;2022-09-13T01:52:54;16.43;95.01
51305;HTU21D;37392;50.964;6.952;2022-09-13T01:55:35;16.45;95.17
51305;HTU21D;37392;50.964;6.952;2022-09-13T02:01:15;16.55;94.96
51305;HTU21D;37392;50.964;6.952;2022-09-13T02:03:44;16.62;94.78
51305;HTU21D;37392;50.964;6.952;2022-09-13T02:06:43;16.65;94.52
51305;HTU21D;37392;50.964;6.952;2022-09-13T02:09:12;16.58;94.31
51305;HTU21D;37392;50.964;6.952;2022-09-13T02:11:40;16.56;94.33
51305;HTU21D;37392;50.964;6.952;2022-09-13T02:14:14;16.56;94.44
51305;HTU21D;37392;50.964;6.952;2022-09-13T02:16:44;16.57;94.59
51305;HTU21D;37392;50.964;6.952;2022-09-13T02:19:17;16.58;94.65
51305;HTU21D;37392;50.964;6.952;2022-09-13T02:21:48;16.59;94.53
51305;HTU21D;37392;50.964;6.952;2022-09-13T02:24:25;16.61;94.58
51305;HTU21D;37392;50.964;6.952;2022-09-13T02:26:54;16.64;94.31
51305;HTU21D;37392;50.964;6.952;2022-09-13T02:29:20;16.70;94.15
51305;HTU21D;37392;50.964;6.952;2022-09-13T02:31:54;16.73;93.99
51305;HTU21D;37392;50.964;6.952;2022-09-13T02:34:22;16.78;93.72
51305;HTU21D;37392;50.964;6.952;2022-09-13T02:36:51;16.85;93.40
51305;HTU21D;37392;50.964;6.952;2022-09-13T02:39:21;16.92;93.08
51305;HTU21D;37392;50.964;6.952;2022-09-13T02:44:27;17.05;92.40
51305;HTU21D;37392;50.964;6.952;2022-09-13T02:54:56;17.19;92.88
51305;HTU21D;37392;50.964;6.952;2022-09-13T02:57:29;17.19;92.60
51305;HTU21D;37392;50.964;6.952;2022-09-13T02:59:59;17.21;92.88
51305;HTU21D;37392;50.964;6.952;2022-09-13T03:02:26;17.21;94.44
51305;HTU21D;37392;50.964;6.952;2022-09-13T03:04:55;17.17;95.08
51305;HTU21D;37392;50.964;6.952;2022-09-13T03:07:21;17.11;95.73
51305;HTU21D;37392;50.964;6.952;2022-09-13T03:09:57;17.08;96.37
51305;HTU21D;37392;50.964;6.952;2022-09-13T03:15:23;16.99;96.79
51305;HTU21D;37392;50.964;6.952;2022-09-13T03:20:43;16.93;96.87
51305;HTU21D;37392;50.964;6.952;2022-09-13T03:31:49;16.98;95.52
51305;HTU21D;37392;50.964;6.952;2022-09-13T03:34:47;16.98;95.29
51305;HTU21D;37392;50.964;6.952;2022-09-13T03:45:10;17.01;94.94
51305;HTU21D;37392;50.964;6.952;2022-09-13T03:47:36;17.04;94.62
51305;HTU21D;37392;50.964;6.952;2022-09-13T03:50:05;17.06;94.49
51305;HTU21D;37392;50.964;6.952;2022-09-13T03:52:32;17.09;94.62
51305;HTU21D;37392;50.964;6.952;2022-09-13T03:54:57;17.09;94.62
51305;HTU21D;37392;50.964;6.952;2022-09-13T03:57:23;17.10;94.68
51305;HTU21D;37392;50.964;6.952;2022-09-13T03:59:49;17.13;94.58
51305;HTU21D;37392;50.964;6.952;2022-09-13T04:02:16;17.13;94.77
51305;HTU21D;37392;50.964;6.952;2022-09-13T04:04:43;17.08;94.34
51305;HTU21D;37392;50.964;6.952;2022-09-13T04:07:09;17.10;94.28
51305;HTU21D;37392;50.964;6.952;2022-09-13T04:09:36;17.09;94.19
51305;HTU21D;37392;50.964;6.952;2022-09-13T04:12:02;17.14;93.93
51305;HTU21D;37392;50.964;6.952;2022-09-13T04:14:27;17.19;93.54
51305;HTU21D;37392;50.964;6.952;2022-09-13T04:16:53;17.21;93.16
51305;HTU21D;37392;50.964;6.952;2022-09-13T04:19:20;17.21;92.95
51305;HTU21D;37392;50.964;6.952;2022-09-13T04:21:49;17.20;93.07
51305;HTU21D;37392;50.964;6.952;2022-09-13T04:24:16;17.22;92.98
51305;HTU21D;37392;50.964;6.952;2022-09-13T04:26:42;17.19;92.94
51305;HTU21D;37392;50.964;6.952;2022-09-13T04:29:08;17.18;92.88
51305;HTU21D;37392;50.964;6.952;2022-09-13T04:31:34;17.18;92.22
51305;HTU21D;37392;50.964;6.952;2022-09-13T04:33:59;17.23;91.94
51305;HTU21D;37392;50.964;6.952;2022-09-13T04:36:25;17.23;91.64
51305;HTU21D;37392;50.964;6.952;2022-09-13T04:38:51;17.23;91.50
51305;HTU21D;37392;50.964;6.952;2022-09-13T04:41:16;17.26;91.45
51305;HTU21D;37392;50.964;6.952;2022-09-13T04:43:42;17.26;91.24
51305;HTU21D;37392;50.964;6.952;2022-09-13T04:46:08;17.26;90.89
51305;HTU21D;37392;50.964;6.952;2022-09-13T04:48:33;17.28;90.74
51305;HTU21D;37392;50.964;6.952;2022-09-13T04:51:00;17.29;90.63
51305;HTU21D;37392;50.964;6.952;2022-09-13T04:53:28;17.34;90.26
51305;HTU21D;37392;50.964;6.952;2022-09-13T04:55:59;17.37;90.13
51305;HTU21D;37392;50.964;6.952;2022-09-13T04:58:27;17.40;90.13
51305;HTU21D;37392;50.964;6.952;2022-09-13T05:00:53;17.39;90.06
51305;HTU21D;37392;50.964;6.952;2022-09-13T05:03:21;17.41;90.22
51305;HTU21D;37392;50.964;6.952;2022-09-13T05:05:47;17.39;90.31
51305;HTU21D;37392;50.964;6.952;2022-09-13T05:08:12;17.40;90.20
51305;HTU21D;37392;50.964;6.952;2022-09-13T05:10:38;17.46;89.85
51305;HTU21D;37392;50.964;6.952;2022-09-13T05:13:03;17.47;89.06
51305;HTU21D;37392;50.964;6.952;2022-09-13T05:15:29;17.49;88.70
51305;HTU21D;37392;50.964;6.952;2022-09-13T05:17:54;17.54;88.30
51305;HTU21D;37392;50.964;6.952;2022-09-13T05:20:20;17.56;88.15
51305;HTU21D;37392;50.964;6.952;2022-09-13T05:22:45;17.59;87.31
51305;HTU21D;37392;50.964;6.952;2022-09-13T05:25:11;17.60;87.12
51305;HTU21D;37392;50.964;6.952;2022-09-13T05:27:36;17.65;86.57
51305;HTU21D;37392;50.964;6.952;2022-09-13T05:30:02;17.70;86.58
51305;HTU21D;37392;50.964;6.952;2022-09-13T05:32:29;17.70;86.73
51305;HTU21D;37392;50.964;6.952;2022-09-13T05:34:55;17.72;86.91
51305;HTU21D;37392;50.964;6.952;2022-09-13T05:37:21;17.76;87.10
51305;HTU21D;37392;50.964;6.952;2022-09-13T05:39:46;17.78;87.32
51305;HTU21D;37392;50.964;6.952;2022-09-13T05:42:12;17.80;87.41
51305;HTU21D;37392;50.964;6.952;2022-09-13T05:44:37;17.84;87.57
51305;HTU21D;37392;50.964;6.952;2022-09-13T05:47:03;17.84;88.02
51305;HTU21D;37392;50.964;6.952;2022-09-13T05:49:28;17.89;88.06
51305;HTU21D;37392;50.964;6.952;2022-09-13T05:51:54;17.85;88.16
51305;HTU21D;37392;50.964;6.952;2022-09-13T05:54:19;17.89;88.00
51305;HTU21D;37392;50.964;6.952;2022-09-13T05:56:44;17.87;88.00
51305;HTU21D;37392;50.964;6.952;2022-09-13T05:59:10;17.87;87.51
51305;HTU21D;37392;50.964;6.952;2022-09-13T06:01:37;17.91;86.88
51305;HTU21D;37392;50.964;6.952;2022-09-13T06:04:03;17.94;86.51
51305;HTU21D;37392;50.964;6.952;2022-09-13T06:06:29;17.97;86.22
51305;HTU21D;37392;50.964;6.952;2022-09-13T06:08:54;18.03;85.87
51305;HTU21D;37392;50.964;6.952;2022-09-13T06:11:22;18.09;85.73
51305;HTU21D;37392;50.964;6.952;2022-09-13T06:13:48;18.15;85.40
51305;HTU21D;37392;50.964;6.952;2022-09-13T06:16:14;18.22;85.23
51305;HTU21D;37392;50.964;6.952;2022-09-13T06:18:41;18.29;84.93
51305;HTU21D;37392;50.964;6.952;2022-09-13T06:21:17;18.34;84.57
51305;HTU21D;37392;50.964;6.952;2022-09-13T06:23:47;18.42;84.24
51305;HTU21D;37392;50.964;6.952;2022-09-13T06:26:17;18.48;84.06
51305;HTU21D;37392;50.964;6.952;2022-09-13T06:28:50;18.51;84.17
51305;HTU21D;37392;50.964;6.952;2022-09-13T06:31:17;18.55;84.35
51305;HTU21D;37392;50.964;6.952;2022-09-13T06:33:44;18.61;84.36
51305;HTU21D;37392;50.964;6.952;2022-09-13T06:38:35;18.77;84.23
51305;HTU21D;37392;50.964;6.952;2022-09-13T06:41:07;18.83;84.03
51305;HTU21D;37392;50.964;6.952;2022-09-13T06:43:34;18.91;83.90
51305;HTU21D;37392;50.964;6.952;2022-09-13T06:48:26;19.05;83.42
51305;HTU21D;37392;50.964;6.952;2022-09-13T06:50:52;19.09;83.14
51305;HTU21D;37392;50.964;6.952;2022-09-13T06:53:17;19.17;82.94
51305;HTU21D;37392;50.964;6.952;2022-09-13T06:55:43;19.32;82.60
51305;HTU21D;37392;50.964;6.952;2022-09-13T06:58:08;19.40;82.30
51305;HTU21D;37392;50.964;6.952;2022-09-13T07:00:33;19.50;82.04
51305;HTU21D;37392;50.964;6.952;2022-09-13T07:02:59;19.54;81.38
51305;HTU21D;37392;50.964;6.952;2022-09-13T07:05:24;19.57;81.39
51305;HTU21D;37392;50.964;6.952;2022-09-13T07:07:50;19.66;81.24
51305;HTU21D;37392;50.964;6.952;2022-09-13T07:10:15;19.72;81.01
51305;HTU21D;37392;50.964;6.952;2022-09-13T07:12:41;19.81;80.49
51305;HTU21D;37392;50.964;6.952;2022-09-13T07:15:07;19.80;80.12
51305;HTU21D;37392;50.964;6.952;2022-09-13T07:17:33;19.87;80.24
51305;HTU21D;37392;50.964;6.952;2022-09-13T07:19:58;19.91;79.87
51305;HTU21D;37392;50.964;6.952;2022-09-13T07:22:24;20.01;79.62
51305;HTU21D;37392;50.964;6.952;2022-09-13T07:24:52;20.26;79.08
51305;HTU21D;37392;50.964;6.952;2022-09-13T07:27:17;20.37;78.41
51305;HTU21D;37392;50.964;6.952;2022-09-13T07:29:43;20.48;77.96
51305;HTU21D;37392;50.964;6.952;2022-09-13T07:32:08;20.63;77.55
51305;HTU21D;37392;50.964;6.952;2022-09-13T07:34:34;20.86;77.06
51305;HTU21D;37392;50.964;6.952;2022-09-13T07:36:59;21.03;76.43
51305;HTU21D;37392;50.964;6.952;2022-09-13T07:39:25;21.20;75.88
51305;HTU21D;37392;50.964;6.952;2022-09-13T07:41:50;21.44;75.23
51305;HTU21D;37392;50.964;6.952;2022-09-13T07:44:17;21.54;74.99
51305;HTU21D;37392;50.964;6.952;2022-09-13T07:46:43;21.84;74.27
51305;HTU21D;37392;50.964;6.952;2022-09-13T07:49:12;21.99;73.47
51305;HTU21D;37392;50.964;6.952;2022-09-13T07:51:41;22.19;72.97
51305;HTU21D;37392;50.964;6.952;2022-09-13T07:54:14;22.34;72.19
51305;HTU21D;37392;50.964;6.952;2022-09-13T07:56:41;22.42;72.04
51305;HTU21D;37392;50.964;6.952;2022-09-13T07:59:10;22.46;71.84
51305;HTU21D;37392;50.964;6.952;2022-09-13T08:01:38;22.58;71.49
51305;HTU21D;37392;50.964;6.952;2022-09-13T08:04:09;22.72;71.28
51305;HTU21D;37392;50.964;6.952;2022-09-13T08:06:36;22.80;70.58
51305;HTU21D;37392;50.964;6.952;2022-09-13T08:09:03;22.94;69.87
51305;HTU21D;37392;50.964;6.952;2022-09-13T08:11:39;23.05;69.48
51305;HTU21D;37392;50.964;6.952;2022-09-13T08:14:06;23.35;68.87
51305;HTU21D;37392;50.964;6.952;2022-09-13T08:16:34;23.62;68.20
51305;HTU21D;37392;50.964;6.952;2022-09-13T08:19:01;23.79;67.65
51305;HTU21D;37392;50.964;6.952;2022-09-13T08:21:35;23.99;67.17
51305;HTU21D;37392;50.964;6.952;2022-09-13T08:24:02;24.35;66.35
51305;HTU21D;37392;50.964;6.952;2022-09-13T08:26:29;24.61;65.17
51305;HTU21D;37392;50.964;6.952;2022-09-13T08:28:56;24.84;64.43
51305;HTU21D;37392;50.964;6.952;2022-09-13T08:31:23;25.17;63.85
51305;HTU21D;37392;50.964;6.952;2022-09-13T08:33:48;25.51;62.63
51305;HTU21D;37392;50.964;6.952;2022-09-13T08:36:14;25.77;62.06
51305;HTU21D;37392;50.964;6.952;2022-09-13T08:38:47;25.86;61.62
51305;HTU21D;37392;50.964;6.952;2022-09-13T08:49:16;26.91;59.13
51305;HTU21D;37392;50.964;6.952;2022-09-13T08:51:50;27.65;57.56
51305;HTU21D;37392;50.964;6.952;2022-09-13T08:54:18;28.20;55.64
51305;HTU21D;37392;50.964;6.952;2022-09-13T09:08:03;30.76;49.11
51305;HTU21D;37392;50.964;6.952;2022-09-13T09:10:39;30.66;48.18
51305;HTU21D;37392;50.964;6.952;2022-09-13T09:13:07;30.89;47.28
51305;HTU21D;37392;50.964;6.952;2022-09-13T09:15:48;31.18;47.08
51305;HTU21D;37392;50.964;6.952;2022-09-13T09:21:15;31.07;47.45
51305;HTU21D;37392;50.964;6.952;2022-09-13T09:28:57;31.27;46.61
51305;HTU21D;37392;50.964;6.952;2022-09-13T09:34:14;31.98;45.61
51305;HTU21D;37392;50.964;6.952;2022-09-13T09:36:55;32.71;44.35
51305;HTU21D;37392;50.964;6.952;2022-09-13T09:39:36;33.51;43.20
51305;HTU21D;37392;50.964;6.952;2022-09-13T09:42:04;34.05;41.59
51305;HTU21D;37392;50.964;6.952;2022-09-13T09:44:33;34.42;41.13
51305;HTU21D;37392;50.964;6.952;2022-09-13T09:47:03;34.51;40.48
51305;HTU21D;37392;50.964;6.952;2022-09-13T09:52:34;34.55;40.40
51305;HTU21D;37392;50.964;6.952;2022-09-13T09:58:02;34.76;39.68
51305;HTU21D;37392;50.964;6.952;2022-09-13T10:00:37;34.97;39.48
51305;HTU21D;37392;50.964;6.952;2022-09-13T10:03:30;35.41;39.14
51305;HTU21D;37392;50.964;6.952;2022-09-13T10:06:04;36.09;37.98
51305;HTU21D;37392;50.964;6.952;2022-09-13T10:08:37;36.52;37.43
51305;HTU21D;37392;50.964;6.952;2022-09-13T10:11:05;36.88;36.73
51305;HTU21D;37392;50.964;6.952;2022-09-13T10:13:30;37.34;35.96
51305;HTU21D;37392;50.964;6.952;2022-09-13T10:16:00;37.60;35.34
51305;HTU21D;37392;50.964;6.952;2022-09-13T10:18:31;37.42;35.43
51305;HTU21D;37392;50.964;6.952;2022-09-13T10:21:06;37.72;35.04
51305;HTU21D;37392;50.964;6.952;2022-09-13T10:23:47;38.01;34.61
51305;HTU21D;37392;50.964;6.952;2022-09-13T10:26:15;37.97;34.84
51305;HTU21D;37392;50.964;6.952;2022-09-13T10:28:55;38.00;34.77
51305;HTU21D;37392;50.964;6.952;2022-09-13T10:31:28;38.09;34.54
51305;HTU21D;37392;50.964;6.952;2022-09-13T10:33:59;37.73;34.16
51305;HTU21D;37392;50.964;6.952;2022-09-13T10:36:35;37.59;34.77
51305;HTU21D;37392;50.964;6.952;2022-09-13T10:39:02;37.27;35.57
51305;HTU21D;37392;50.964;6.952;2022-09-13T10:41:31;36.59;36.47
51305;HTU21D;37392;50.964;6.952;2022-09-13T10:44:00;35.70;37.69
51305;HTU21D;37392;50.964;6.952;2022-09-13T10:46:28;35.06;38.73
51305;HTU21D;37392;50.964;6.952;2022-09-13T10:48:55;34.70;39.53
51305;HTU21D;37392;50.964;6.952;2022-09-13T10:56:37;33.31;42.13
51305;HTU21D;37392;50.964;6.952;2022-09-13T11:19:12;31.94;44.80
51305;HTU21D;37392;50.964;6.952;2022-09-13T11:27:29;32.19;44.19
51305;HTU21D;37392;50.964;6.952;2022-09-13T11:41:17;32.18;44.06
51305;HTU21D;37392;50.964;6.952;2022-09-13T11:47:17;31.69;44.95
51305;HTU21D;37392;50.964;6.952;2022-09-13T11:50:19;31.50;45.59
51305;HTU21D;37392;50.964;6.952;2022-09-13T11:55:32;31.60;45.78
51305;HTU21D;37392;50.964;6.952;2022-09-13T11:58:07;31.45;45.96
51305;HTU21D;37392;50.964;6.952;2022-09-13T12:00:47;31.27;45.87
51305;HTU21D;37392;50.964;6.952;2022-09-13T12:05:57;30.47;47.50
51305;HTU21D;37392;50.964;6.952;2022-09-13T12:08:35;30.36;47.68
51305;HTU21D;37392;50.964;6.952;2022-09-13T12:11:07;30.12;47.96
51305;HTU21D;37392;50.964;6.952;2022-09-13T12:13:40;29.83;48.23
51305;HTU21D;37392;50.964;6.952;2022-09-13T12:16:09;29.57;49.13
51305;HTU21D;37392;50.964;6.952;2022-09-13T12:18:42;29.66;49.38
51305;HTU21D;37392;50.964;6.952;2022-09-13T12:21:12;29.68;49.25
51305;HTU21D;37392;50.964;6.952;2022-09-13T12:23:56;29.74;49.00
51305;HTU21D;37392;50.964;6.952;2022-09-13T12:29:13;29.70;49.37
51305;HTU21D;37392;50.964;6.952;2022-09-13T12:31:40;29.59;49.25
51305;HTU21D;37392;50.964;6.952;2022-09-13T12:34:06;29.43;49.68
51305;HTU21D;37392;50.964;6.952;2022-09-13T12:41:45;29.20;50.92
51305;HTU21D;37392;50.964;6.952;2022-09-13T12:57:53;29.05;51.11
51305;HTU21D;37392;50.964;6.952;2022-09-13T13:00:26;29.11;51.04
51305;HTU21D;37392;50.964;6.952;2022-09-13T13:03:11;29.06;51.16
51305;HTU21D;37392;50.964;6.952;2022-09-13T13:10:44;28.88;51.21
51305;HTU21D;37392;50.964;6.952;2022-09-13T13:18:26;28.82;51.43
51305;HTU21D;37392;50.964;6.952;2022-09-13T13:33:51;27.97;53.60
51305;HTU21D;37392;50.964;6.952;2022-09-13T13:54:31;27.97;54.22
51305;HTU21D;37392;50.964;6.952;2022-09-13T14:00:14;28.40;53.12
51305;HTU21D;37392;50.964;6.952;2022-09-13T14:05:12;28.94;52.01
51305;HTU21D;37392;50.964;6.952;2022-09-13T14:16:15;29.42;50.98
51305;HTU21D;37392;50.964;6.952;2022-09-13T14:22:33;29.36;50.33
51305;HTU21D;37392;50.964;6.952;2022-09-13T14:24:43;29.03;51.08
51305;HTU21D;37392;50.964;6.952;2022-09-13T14:27:18;28.94;51.43
51305;HTU21D;37392;50.964;6.952;2022-09-13T14:29:47;28.88;51.65
51305;HTU21D;37392;50.964;6.952;2022-09-13T14:32:16;28.95;51.88
51305;HTU21D;37392;50.964;6.952;2022-09-13T14:34:52;29.15;51.72
51305;HTU21D;37392;50.964;6.952;2022-09-13T14:37:22;29.35;51.29
51305;HTU21D;37392;50.964;6.952;2022-09-13T14:39:56;29.51;50.84
51305;HTU21D;37392;50.964;6.952;2022-09-13T14:42:24;29.66;50.46
51305;HTU21D;37392;50.964;6.952;2022-09-13T14:44:49;29.65;50.27
51305;HTU21D;37392;50.964;6.952;2022-09-13T14:50:11;29.21;51.40
51305;HTU21D;37392;50.964;6.952;2022-09-13T14:52:39;29.14;51.71
51305;HTU21D;37392;50.964;6.952;2022-09-13T14:55:13;29.09;51.79
51305;HTU21D;37392;50.964;6.952;2022-09-13T14:57:43;29.16;51.68
51305;HTU21D;37392;50.964;6.952;2022-09-13T15:00:15;29.13;51.77
51305;HTU21D;37392;50.964;6.952;2022-09-13T15:02:53;29.04;52.18
51305;HTU21D;37392;50.964;6.952;2022-09-13T15:05:23;29.00;52.43
51305;HTU21D;37392;50.964;6.952;2022-09-13T15:07:51;28.97;52.23
51305;HTU21D;37392;50.964;6.952;2022-09-13T15:17:57;28.28;53.26
51305;HTU21D;37392;50.964;6.952;2022-09-13T15:20:24;28.16;53.69
51305;HTU21D;37392;50.964;6.952;2022-09-13T15:22:52;28.08;54.04
51305;HTU21D;37392;50.964;6.952;2022-09-13T15:25:19;27.96;54.76
51305;HTU21D;37392;50.964;6.952;2022-09-13T15:27:47;27.90;55.00
51305;HTU21D;37392;50.964;6.952;2022-09-13T15:30:26;27.82;54.91
51305;HTU21D;37392;50.964;6.952;2022-09-13T15:35:35;27.75;55.21
51305;HTU21D;37392;50.964;6.952;2022-09-13T15:41:27;27.74;55.37
51305;HTU21D;37392;50.964;6.952;2022-09-13T15:43:58;27.69;55.78
51305;HTU21D;37392;50.964;6.952;2022-09-13T15:46:24;27.63;57.45
51305;HTU21D;37392;50.964;6.952;2022-09-13T15:48:51;27.51;58.65
51305;HTU21D;37392;50.964;6.952;2022-09-13T15:51:18;27.45;57.92
51305;HTU21D;37392;50.964;6.952;2022-09-13T15:53:44;27.38;57.93
51305;HTU21D;37392;50.964;6.952;2022-09-13T15:56:17;27.34;61.63
51305;HTU21D;37392;50.964;6.952;2022-09-13T15:58:45;27.24;61.26
51305;HTU21D;37392;50.964;6.952;2022-09-13T16:01:11;27.14;60.99
51305;HTU21D;37392;50.964;6.952;2022-09-13T16:03:37;27.10;60.31
51305;HTU21D;37392;50.964;6.952;2022-09-13T16:06:03;27.08;59.60
51305;HTU21D;37392;50.964;6.952;2022-09-13T16:08:29;27.02;59.80
51305;HTU21D;37392;50.964;6.952;2022-09-13T16:10:55;26.98;60.02
51305;HTU21D;37392;50.964;6.952;2022-09-13T16:13:20;26.91;59.73
51305;HTU21D;37392;50.964;6.952;2022-09-13T16:15:46;26.82;59.76
51305;HTU21D;37392;50.964;6.952;2022-09-13T16:18:12;26.76;59.57
51305;HTU21D;37392;50.964;6.952;2022-09-13T16:20:39;26.70;59.49
51305;HTU21D;37392;50.964;6.952;2022-09-13T16:23:04;26.64;59.45
51305;HTU21D;37392;50.964;6.952;2022-09-13T16:25:30;26.54;59.86
51305;HTU21D;37392;50.964;6.952;2022-09-13T16:27:55;26.47;60.11
51305;HTU21D;37392;50.964;6.952;2022-09-13T16:30:22;26.38;60.35
51305;HTU21D;37392;50.964;6.952;2022-09-13T16:32:48;26.28;60.60
51305;HTU21D;37392;50.964;6.952;2022-09-13T16:35:13;26.20;60.79
51305;HTU21D;37392;50.964;6.952;2022-09-13T16:37:40;26.08;60.92
51305;HTU21D;37392;50.964;6.952;2022-09-13T16:40:06;26.03;61.06
51305;HTU21D;37392;50.964;6.952;2022-09-13T16:42:34;25.92;61.42
51305;HTU21D;37392;50.964;6.952;2022-09-13T16:44:59;25.82;63.44
51305;HTU21D;37392;50.964;6.952;2022-09-13T16:47:25;25.64;65.69
51305;HTU21D;37392;50.964;6.952;2022-09-13T16:49:50;25.50;65.97
51305;HTU21D;37392;50.964;6.952;2022-09-13T16:52:16;25.35;65.91
51305;HTU21D;37392;50.964;6.952;2022-09-13T16:54:42;25.27;65.76
51305;HTU21D;37392;50.964;6.952;2022-09-13T16:57:10;25.21;67.77
51305;HTU21D;37392;50.964;6.952;2022-09-13T16:59:39;25.10;70.68
51305;HTU21D;37392;50.964;6.952;2022-09-13T17:02:11;24.94;71.42
51305;HTU21D;37392;50.964;6.952;2022-09-13T17:04:36;24.79;70.06
51305;HTU21D;37392;50.964;6.952;2022-09-13T17:07:02;24.70;70.29
51305;HTU21D;37392;50.964;6.952;2022-09-13T17:09:30;24.62;69.81
51305;HTU21D;37392;50.964;6.952;2022-09-13T17:11:56;24.53;72.17
51305;HTU21D;37392;50.964;6.952;2022-09-13T17:14:22;24.40;73.60
51305;HTU21D;37392;50.964;6.952;2022-09-13T17:16:49;24.26;73.27
51305;HTU21D;37392;50.964;6.952;2022-09-13T17:19:17;24.15;72.67
51305;HTU21D;37392;50.964;6.952;2022-09-13T17:21:48;24.09;72.66
51305;HTU21D;37392;50.964;6.952;2022-09-13T17:24:14;24.01;72.68
51305;HTU21D;37392;50.964;6.952;2022-09-13T17:26:40;24.00;72.97
51305;HTU21D;37392;50.964;6.952;2022-09-13T17:29:07;23.97;72.93
51305;HTU21D;37392;50.964;6.952;2022-09-13T17:31:34;23.89;73.10
51305;HTU21D;37392;50.964;6.952;2022-09-13T17:33:59;23.84;73.29
51305;HTU21D;37392;50.964;6.952;2022-09-13T17:36:25;23.81;74.92
51305;HTU21D;37392;50.964;6.952;2022-09-13T17:38:54;23.70;78.87
51305;HTU21D;37392;50.964;6.952;2022-09-13T17:41:20;23.47;82.89
51305;HTU21D;37392;50.964;6.952;2022-09-13T17:43:46;23.20;86.00
51305;HTU21D;37392;50.964;6.952;2022-09-13T17:48:38;22.62;89.21
51305;HTU21D;37392;50.964;6.952;2022-09-13T17:51:05;22.29;90.95
51305;HTU21D;37392;50.964;6.952;2022-09-13T17:53:50;21.99;94.20
51305;HTU21D;37392;50.964;6.952;2022-09-13T17:56:19;21.79;96.23
51305;HTU21D;37392;50.964;6.952;2022-09-13T17:58:55;21.55;97.55
51305;HTU21D;37392;50.964;6.952;2022-09-13T18:01:21;21.38;98.28
51305;HTU21D;37392;50.964;6.952;2022-09-13T18:03:47;21.22;99.71
51305;HTU21D;37392;50.964;6.952;2022-09-13T18:06:12;21.13;100.12
51305;HTU21D;37392;50.964;6.952;2022-09-13T18:08:39;21.04;100.34
51305;HTU21D;37392;50.964;6.952;2022-09-13T18:11:06;20.98;101.79
51305;HTU21D;37392;50.964;6.952;2022-09-13T18:13:33;20.91;101.52
51305;HTU21D;37392;50.964;6.952;2022-09-13T18:16:06;20.91;101.16
51305;HTU21D;37392;50.964;6.952;2022-09-13T18:18:34;20.86;102.10
51305;HTU21D;37392;50.964;6.952;2022-09-13T18:21:00;20.69;103.81
51305;HTU21D;37392;50.964;6.952;2022-09-13T18:23:26;20.56;104.77
51305;HTU21D;37392;50.964;6.952;2022-09-13T18:25:59;20.37;106.33
51305;HTU21D;37392;50.964;6.952;2022-09-13T18:28:32;20.24;107.16
51305;HTU21D;37392;50.964;6.952;2022-09-13T18:30:59;20.13;108.01
51305;HTU21D;37392;50.964;6.952;2022-09-13T18:33:27;20.03;108.95
51305;HTU21D;37392;50.964;6.952;2022-09-13T18:38:22;19.86;110.99
51305;HTU21D;37392;50.964;6.952;2022-09-13T18:40:58;19.81;111.64
51305;HTU21D;37392;50.964;6.952;2022-09-13T18:43:24;19.77;112.32
51305;HTU21D;37392;50.964;6.952;2022-09-13T18:45:53;19.71;112.73
51305;HTU21D;37392;50.964;6.952;2022-09-13T18:48:27;19.69;113.47
51305;HTU21D;37392;50.964;6.952;2022-09-13T18:50:54;19.66;113.65
51305;HTU21D;37392;50.964;6.952;2022-09-13T18:53:19;19.62;114.18
51305;HTU21D;37392;50.964;6.952;2022-09-13T18:55:45;19.63;114.96
51305;HTU21D;37392;50.964;6.952;2022-09-13T18:58:10;19.59;114.62
51305;HTU21D;37392;50.964;6.952;2022-09-13T19:00:36;19.57;115.07
51305;HTU21D;37392;50.964;6.952;2022-09-13T19:03:02;19.53;114.83
51305;HTU21D;37392;50.964;6.952;2022-09-13T19:05:27;19.52;115.37
51305;HTU21D;37392;50.964;6.952;2022-09-13T19:07:53;19.45;115.64
51305;HTU21D;37392;50.964;6.952;2022-09-13T19:10:20;19.44;116.12
51305;HTU21D;37392;50.964;6.952;2022-09-13T19:12:45;19.39;116.37
51305;HTU21D;37392;50.964;6.952;2022-09-13T19:15:11;19.33;116.51
51305;HTU21D;37392;50.964;6.952;2022-09-13T19:17:36;19.30;117.27
51305;HTU21D;37392;50.964;6.952;2022-09-13T19:20:02;19.28;117.54
51305;HTU21D;37392;50.964;6.952;2022-09-13T19:22:28;19.27;118.12
51305;HTU21D;37392;50.964;6.952;2022-09-13T19:24:54;19.26;118.31
51305;HTU21D;37392;50.964;6.952;2022-09-13T19:27:20;19.24;118.52
51305;HTU21D;37392;50.964;6.952;2022-09-13T19:29:45;19.24;118.75
51305;HTU21D;37392;50.964;6.952;2022-09-13T19:32:11;19.23;-5.79
51305;HTU21D;37392;50.964;6.952;2022-09-13T19:34:37;19.24;-5.57
51305;HTU21D;37392;50.964;6.952;2022-09-13T19:37:02;19.23;-5.47
51305;HTU21D;37392;50.964;6.952;2022-09-13T19:39:28;19.23;-5.03
51305;HTU21D;37392;50.964;6.952;2022-09-13T19:41:54;19.22;-4.89
51305;HTU21D;37392;50.964;6.952;2022-09-13T19:44:19;19.17;-4.89
51305;HTU21D;37392;50.964;6.952;2022-09-13T19:46:45;19.14;-4.78